sensor_id;sensor_type;location;lat;lon;timestamp;temperature;humidity
59128;DHT22;44912;52.754;5.994;2023-02-28T00:02:21;4.00;99.90
59128;DHT22;44912;52.754;5.994;2023-02-28T00:04:46;4.00;99.90
59128;DHT22;44912;52.754;5.994;2023-02-28T00:07:26;4.00;99.90
59128;DHT22;44912;52.754;5.994;2023-02-28T00:09:53;4.00;99.90
59128;DHT22;44912;52.754;5.994;2023-02-28T00:12:18;4.00;99.90
59128;DHT22;44912;52.754;5.994;2023-02-28T00:14:44;4.00;99.90
59128;DHT22;44912;52.754;5.994;2023-02-28T00:17:09;3.90;99.90
59128;DHT22;44912;52.754;5.994;2023-02-28T00:19:35;3.90;99.90
59128;DHT22;44912;52.754;5.994;2023-02-28T00:22:00;3.90;99.90
59128;DHT22;44912;52.754;5.994;2023-02-28T00:24:26;3.90;99.90
59128;DHT22;44912;52.754;5.994;2023-02-28T00:26:51;3.90;99.90
59128;DHT22;44912;52.754;5.994;2023-02-28T00:29:17;3.90;99.90
59128;DHT22;44912;52.754;5.994;2023-02-28T00:31:42;3.90;99.90
59128;DHT22;44912;52.754;5.994;2023-02-28T00:34:08;3.90;99.90
59128;DHT22;44912;52.754;5.994;2023-02-28T00:36:33;3.90;99.90
59128;DHT22;44912;52.754;5.994;2023-02-28T00:38:59;3.90;99.90
59128;DHT22;44912;52.754;5.994;2023-02-28T00:41:24;3.90;99.90
59128;DHT22;44912;52.754;5.994;2023-02-28T00:43:50;3.90;99.90
59128;DHT22;44912;52.754;5.994;2023-02-28T00:46:15;4.00;99.90
59128;DHT22;44912;52.754;5.994;2023-02-28T00:48:41;3.90;99.90
59128;DHT22;44912;52.754;5.994;2023-02-28T00:51:06;3.90;99.90
59128;DHT22;44912;52.754;5.994;2023-02-28T00:53:32;3.90;99.90
59128;DHT22;44912;52.754;5.994;2023-02-28T00:55:58;3.90;99.90
59128;DHT22;44912;52.754;5.994;2023-02-28T00:58:24;4.00;99.90
59128;DHT22;44912;52.754;5.994;2023-02-28T01:00:51;4.00;99.90
59128;DHT22;44912;52.754;5.994;2023-02-28T01:03:18;4.00;99.90
59128;DHT22;44912;52.754;5.994;2023-02-28T01:05:45;4.00;99.90
59128;DHT22;44912;52.754;5.994;2023-02-28T01:08:11;4.00;99.90
59128;DHT22;44912;52.754;5.994;2023-02-28T01:10:37;4.10;99.90
59128;DHT22;44912;52.754;5.994;2023-02-28T01:13:03;4.00;99.90
59128;DHT22;44912;52.754;5.994;2023-02-28T01:15:29;4.00;99.90
59128;DHT22;44912;52.754;5.994;2023-02-28T01:17:54;4.00;99.90
59128;DHT22;44912;52.754;5.994;2023-02-28T01:20:20;4.00;99.90
59128;DHT22;44912;52.754;5.994;2023-02-28T01:22:46;4.10;99.90
59128;DHT22;44912;52.754;5.994;2023-02-28T01:25:12;4.00;99.90
59128;DHT22;44912;52.754;5.994;2023-02-28T01:27:37;4.10;99.90
59128;DHT22;44912;52.754;5.994;2023-02-28T01:30:05;4.10;99.90
59128;DHT22;44912;52.754;5.994;2023-02-28T01:32:31;4.10;99.90
59128;DHT22;44912;52.754;5.994;2023-02-28T01:34:57;4.10;99.90
59128;DHT22;44912;52.754;5.994;2023-02-28T01:37:23;4.10;99.90
59128;DHT22;44912;52.754;5.994;2023-02-28T01:39:48;4.10;99.90
59128;DHT22;44912;52.754;5.994;2023-02-28T01:42:14;4.10;99.90
59128;DHT22;44912;52.754;5.994;2023-02-28T01:47:39;4.10;99.90
59128;DHT22;44912;52.754;5.994;2023-02-28T01:50:09;4.10;99.90
59128;DHT22;44912;52.754;5.994;2023-02-28T01:52:36;4.20;99.90
59128;DHT22;44912;52.754;5.994;2023-02-28T01:55:04;4.20;99.90
59128;DHT22;44912;52.754;5.994;2023-02-28T01:57:38;4.20;99.90
59128;DHT22;44912;52.754;5.994;2023-02-28T02:00:09;4.10;99.90
59128;DHT22;44912;52.754;5.994;2023-02-28T02:02:36;4.10;99.90
59128;DHT22;44912;52.754;5.994;2023-02-28T02:05:11;4.10;99.90
59128;DHT22;44912;52.754;5.994;2023-02-28T02:07:43;4.10;99.90
59128;DHT22;44912;52.754;5.994;2023-02-28T02:10:18;4.20;99.90
59128;DHT22;44912;52.754;5.994;2023-02-28T02:12:54;4.10;99.90
59128;DHT22;44912;52.754;5.994;2023-02-28T02:21:18;4.10;99.90
59128;DHT22;44912;52.754;5.994;2023-02-28T02:24:14;4.10;99.90
59128;DHT22;44912;52.754;5.994;2023-02-28T02:26:53;4.10;99.90
59128;DHT22;44912;52.754;5.994;2023-02-28T02:29:44;4.10;99.90
59128;DHT22;44912;52.754;5.994;2023-02-28T02:37:21;4.00;99.90
59128;DHT22;44912;52.754;5.994;2023-02-28T02:40:26;4.00;99.90
59128;DHT22;44912;52.754;5.994;2023-02-28T02:42:51;4.00;99.90
59128;DHT22;44912;52.754;5.994;2023-02-28T02:45:32;4.00;99.90
59128;DHT22;44912;52.754;5.994;2023-02-28T02:48:02;4.00;99.90
59128;DHT22;44912;52.754;5.994;2023-02-28T02:50:45;4.00;99.90
59128;DHT22;44912;52.754;5.994;2023-02-28T02:53:12;4.00;99.90
59128;DHT22;44912;52.754;5.994;2023-02-28T02:55:42;4.00;99.90
59128;DHT22;44912;52.754;5.994;2023-02-28T02:58:13;4.00;99.90
59128;DHT22;44912;52.754;5.994;2023-02-28T03:00:45;4.00;99.90
59128;DHT22;44912;52.754;5.994;2023-02-28T03:03:14;4.00;99.90
59128;DHT22;44912;52.754;5.994;2023-02-28T03:05:50;4.10;99.90
59128;DHT22;44912;52.754;5.994;2023-02-28T03:08:16;4.10;99.90
59128;DHT22;44912;52.754;5.994;2023-02-28T03:10:45;4.10;99.90
59128;DHT22;44912;52.754;5.994;2023-02-28T03:21:34;4.10;99.90
59128;DHT22;44912;52.754;5.994;2023-02-28T03:24:31;4.10;99.90
59128;DHT22;44912;52.754;5.994;2023-02-28T03:27:09;4.10;99.90
59128;DHT22;44912;52.754;5.994;2023-02-28T03:29:41;4.10;99.90
59128;DHT22;44912;52.754;5.994;2023-02-28T03:32:21;4.10;99.90
59128;DHT22;44912;52.754;5.994;2023-02-28T03:35:02;4.10;99.90
59128;DHT22;44912;52.754;5.994;2023-02-28T03:37:33;4.10;99.90
59128;DHT22;44912;52.754;5.994;2023-02-28T03:40:06;4.10;99.90
59128;DHT22;44912;52.754;5.994;2023-02-28T03:42:36;4.10;99.90
59128;DHT22;44912;52.754;5.994;2023-02-28T03:45:05;4.10;99.90
59128;DHT22;44912;52.754;5.994;2023-02-28T03:47:41;4.10;99.90
59128;DHT22;44912;52.754;5.994;2023-02-28T03:50:18;4.10;99.90
59128;DHT22;44912;52.754;5.994;2023-02-28T03:52:50;4.00;99.90
59128;DHT22;44912;52.754;5.994;2023-02-28T03:55:17;4.00;99.90
59128;DHT22;44912;52.754;5.994;2023-02-28T04:00:49;3.90;99.90
59128;DHT22;44912;52.754;5.994;2023-02-28T04:03:17;3.90;99.90
59128;DHT22;44912;52.754;5.994;2023-02-28T04:05:53;3.90;99.90
59128;DHT22;44912;52.754;5.994;2023-02-28T04:08:20;3.90;99.90
59128;DHT22;44912;52.754;5.994;2023-02-28T04:10:57;3.80;99.90
59128;DHT22;44912;52.754;5.994;2023-02-28T04:13:24;3.90;99.90
59128;DHT22;44912;52.754;5.994;2023-02-28T04:15:50;3.80;99.90
59128;DHT22;44912;52.754;5.994;2023-02-28T04:18:15;3.80;99.90
59128;DHT22;44912;52.754;5.994;2023-02-28T04:20:40;3.80;99.90
59128;DHT22;44912;52.754;5.994;2023-02-28T04:23:06;3.80;99.90
59128;DHT22;44912;52.754;5.994;2023-02-28T04:25:31;3.80;99.90
59128;DHT22;44912;52.754;5.994;2023-02-28T04:27:57;3.80;99.90
59128;DHT22;44912;52.754;5.994;2023-02-28T04:30:22;3.70;99.90
59128;DHT22;44912;52.754;5.994;2023-02-28T04:32:48;3.70;99.90
59128;DHT22;44912;52.754;5.994;2023-02-28T04:35:14;3.70;99.90
59128;DHT22;44912;52.754;5.994;2023-02-28T04:37:39;3.70;99.90
59128;DHT22;44912;52.754;5.994;2023-02-28T04:40:05;3.70;99.90
59128;DHT22;44912;52.754;5.994;2023-02-28T04:42:31;3.60;99.90
59128;DHT22;44912;52.754;5.994;2023-02-28T04:45:01;3.60;99.90
59128;DHT22;44912;52.754;5.994;2023-02-28T04:47:27;3.60;99.90
59128;DHT22;44912;52.754;5.994;2023-02-28T04:49:53;3.60;99.90
59128;DHT22;44912;52.754;5.994;2023-02-28T04:52:19;3.60;99.90
59128;DHT22;44912;52.754;5.994;2023-02-28T04:54:44;3.60;99.90
59128;DHT22;44912;52.754;5.994;2023-02-28T04:57:10;3.60;99.90
59128;DHT22;44912;52.754;5.994;2023-02-28T04:59:35;3.60;99.90
59128;DHT22;44912;52.754;5.994;2023-02-28T05:02:01;3.50;99.90
59128;DHT22;44912;52.754;5.994;2023-02-28T05:04:35;3.50;99.90
59128;DHT22;44912;52.754;5.994;2023-02-28T05:07:01;3.50;99.90
59128;DHT22;44912;52.754;5.994;2023-02-28T05:09:28;3.50;99.90
59128;DHT22;44912;52.754;5.994;2023-02-28T05:11:54;3.40;99.90
59128;DHT22;44912;52.754;5.994;2023-02-28T05:14:20;3.50;99.90
59128;DHT22;44912;52.754;5.994;2023-02-28T05:16:45;3.40;99.90
59128;DHT22;44912;52.754;5.994;2023-02-28T05:19:11;3.40;99.90
59128;DHT22;44912;52.754;5.994;2023-02-28T05:21:39;3.40;99.90
59128;DHT22;44912;52.754;5.994;2023-02-28T05:24:14;3.40;99.90
59128;DHT22;44912;52.754;5.994;2023-02-28T05:26:41;3.40;99.90
59128;DHT22;44912;52.754;5.994;2023-02-28T05:29:07;3.40;99.90
59128;DHT22;44912;52.754;5.994;2023-02-28T05:31:33;3.30;99.90
59128;DHT22;44912;52.754;5.994;2023-02-28T05:33:59;3.30;99.90
59128;DHT22;44912;52.754;5.994;2023-02-28T05:36:25;3.30;99.90
59128;DHT22;44912;52.754;5.994;2023-02-28T05:38:51;3.30;99.90
59128;DHT22;44912;52.754;5.994;2023-02-28T05:41:18;3.30;99.90
59128;DHT22;44912;52.754;5.994;2023-02-28T05:43:48;3.30;99.90
59128;DHT22;44912;52.754;5.994;2023-02-28T05:46:14;3.30;99.90
59128;DHT22;44912;52.754;5.994;2023-02-28T05:48:41;3.20;99.90
59128;DHT22;44912;52.754;5.994;2023-02-28T05:51:07;3.20;99.90
59128;DHT22;44912;52.754;5.994;2023-02-28T05:53:33;3.20;99.90
59128;DHT22;44912;52.754;5.994;2023-02-28T05:55:59;3.20;99.90
59128;DHT22;44912;52.754;5.994;2023-02-28T05:58:25;3.20;99.90
59128;DHT22;44912;52.754;5.994;2023-02-28T06:00:54;3.20;99.90
59128;DHT22;44912;52.754;5.994;2023-02-28T06:03:19;3.20;99.90
59128;DHT22;44912;52.754;5.994;2023-02-28T06:05:45;3.20;99.90
59128;DHT22;44912;52.754;5.994;2023-02-28T06:08:11;3.20;99.90
59128;DHT22;44912;52.754;5.994;2023-02-28T06:10:36;3.20;99.90
59128;DHT22;44912;52.754;5.994;2023-02-28T06:13:03;3.20;99.90
59128;DHT22;44912;52.754;5.994;2023-02-28T06:15:29;3.20;99.90
59128;DHT22;44912;52.754;5.994;2023-02-28T06:17:55;3.20;99.90
59128;DHT22;44912;52.754;5.994;2023-02-28T06:20:25;3.20;99.90
59128;DHT22;44912;52.754;5.994;2023-02-28T06:22:55;3.10;99.90
59128;DHT22;44912;52.754;5.994;2023-02-28T06:25:21;3.20;99.90
59128;DHT22;44912;52.754;5.994;2023-02-28T06:27:47;3.10;99.90
59128;DHT22;44912;52.754;5.994;2023-02-28T06:30:13;3.10;99.90
59128;DHT22;44912;52.754;5.994;2023-02-28T06:32:39;3.10;99.90
59128;DHT22;44912;52.754;5.994;2023-02-28T06:35:05;3.10;99.90
59128;DHT22;44912;52.754;5.994;2023-02-28T06:37:31;3.10;99.90
59128;DHT22;44912;52.754;5.994;2023-02-28T06:39:57;3.10;99.90
59128;DHT22;44912;52.754;5.994;2023-02-28T06:42:23;3.00;99.90
59128;DHT22;44912;52.754;5.994;2023-02-28T06:44:55;3.10;99.90
59128;DHT22;44912;52.754;5.994;2023-02-28T06:47:21;3.10;99.90
59128;DHT22;44912;52.754;5.994;2023-02-28T06:49:47;3.10;99.90
59128;DHT22;44912;52.754;5.994;2023-02-28T06:52:13;3.10;99.90
59128;DHT22;44912;52.754;5.994;2023-02-28T06:54:39;3.10;99.90
59128;DHT22;44912;52.754;5.994;2023-02-28T06:57:04;3.00;99.90
59128;DHT22;44912;52.754;5.994;2023-02-28T06:59:30;3.00;99.90
59128;DHT22;44912;52.754;5.994;2023-02-28T07:01:56;3.00;99.90
59128;DHT22;44912;52.754;5.994;2023-02-28T07:04:22;3.00;99.90
59128;DHT22;44912;52.754;5.994;2023-02-28T07:06:47;3.00;99.90
59128;DHT22;44912;52.754;5.994;2023-02-28T07:09:13;3.00;99.90
59128;DHT22;44912;52.754;5.994;2023-02-28T07:11:39;3.00;99.90
59128;DHT22;44912;52.754;5.994;2023-02-28T07:14:06;3.00;99.90
59128;DHT22;44912;52.754;5.994;2023-02-28T07:16:31;3.00;99.90
59128;DHT22;44912;52.754;5.994;2023-02-28T07:18:57;3.00;99.90
59128;DHT22;44912;52.754;5.994;2023-02-28T07:21:22;3.10;99.90
59128;DHT22;44912;52.754;5.994;2023-02-28T07:23:48;3.10;99.90
59128;DHT22;44912;52.754;5.994;2023-02-28T07:26:16;3.00;99.90
59128;DHT22;44912;52.754;5.994;2023-02-28T07:28:43;3.00;99.90
59128;DHT22;44912;52.754;5.994;2023-02-28T07:31:09;3.00;99.90
59128;DHT22;44912;52.754;5.994;2023-02-28T07:33:35;3.00;99.90
59128;DHT22;44912;52.754;5.994;2023-02-28T07:36:06;3.00;99.90
59128;DHT22;44912;52.754;5.994;2023-02-28T07:38:36;3.00;99.90
59128;DHT22;44912;52.754;5.994;2023-02-28T07:41:03;3.00;99.90
59128;DHT22;44912;52.754;5.994;2023-02-28T07:43:32;3.10;99.90
59128;DHT22;44912;52.754;5.994;2023-02-28T07:46:09;3.00;99.90
59128;DHT22;44912;52.754;5.994;2023-02-28T07:48:35;3.00;99.90
59128;DHT22;44912;52.754;5.994;2023-02-28T07:51:01;3.00;99.90
59128;DHT22;44912;52.754;5.994;2023-02-28T07:53:28;2.90;99.90
59128;DHT22;44912;52.754;5.994;2023-02-28T07:55:58;2.90;99.90
59128;DHT22;44912;52.754;5.994;2023-02-28T07:58:25;2.80;99.90
59128;DHT22;44912;52.754;5.994;2023-02-28T08:00:51;2.80;99.90
59128;DHT22;44912;52.754;5.994;2023-02-28T08:03:21;2.80;99.90
59128;DHT22;44912;52.754;5.994;2023-02-28T08:05:47;2.80;99.90
59128;DHT22;44912;52.754;5.994;2023-02-28T08:08:14;2.80;99.90
59128;DHT22;44912;52.754;5.994;2023-02-28T08:10:40;2.80;99.90
59128;DHT22;44912;52.754;5.994;2023-02-28T08:13:05;2.80;99.90
59128;DHT22;44912;52.754;5.994;2023-02-28T08:15:31;2.70;99.90
59128;DHT22;44912;52.754;5.994;2023-02-28T08:17:56;2.70;99.90
59128;DHT22;44912;52.754;5.994;2023-02-28T08:20:23;2.70;99.90
59128;DHT22;44912;52.754;5.994;2023-02-28T08:22:49;2.70;99.90
59128;DHT22;44912;52.754;5.994;2023-02-28T08:25:14;2.80;99.90
59128;DHT22;44912;52.754;5.994;2023-02-28T08:27:40;2.80;99.90
59128;DHT22;44912;52.754;5.994;2023-02-28T08:30:06;2.90;99.90
59128;DHT22;44912;52.754;5.994;2023-02-28T08:32:32;3.00;99.90
59128;DHT22;44912;52.754;5.994;2023-02-28T08:34:58;3.00;99.90
59128;DHT22;44912;52.754;5.994;2023-02-28T08:37:24;3.10;99.90
59128;DHT22;44912;52.754;5.994;2023-02-28T08:39:50;3.10;99.90
59128;DHT22;44912;52.754;5.994;2023-02-28T08:42:15;3.20;99.90
59128;DHT22;44912;52.754;5.994;2023-02-28T08:44:41;3.20;99.90
59128;DHT22;44912;52.754;5.994;2023-02-28T08:47:06;3.20;99.90
59128;DHT22;44912;52.754;5.994;2023-02-28T08:49:32;3.20;99.90
59128;DHT22;44912;52.754;5.994;2023-02-28T08:51:58;3.30;99.90
59128;DHT22;44912;52.754;5.994;2023-02-28T08:54:24;3.40;99.90
59128;DHT22;44912;52.754;5.994;2023-02-28T08:56:50;3.40;99.90
59128;DHT22;44912;52.754;5.994;2023-02-28T08:59:15;3.40;99.90
59128;DHT22;44912;52.754;5.994;2023-02-28T09:01:41;3.40;99.90
59128;DHT22;44912;52.754;5.994;2023-02-28T09:04:09;3.40;99.90
59128;DHT22;44912;52.754;5.994;2023-02-28T09:06:36;3.50;99.90
59128;DHT22;44912;52.754;5.994;2023-02-28T09:09:01;3.70;99.90
59128;DHT22;44912;52.754;5.994;2023-02-28T09:11:28;3.80;99.90
59128;DHT22;44912;52.754;5.994;2023-02-28T09:13:54;3.80;99.90
59128;DHT22;44912;52.754;5.994;2023-02-28T09:16:21;3.90;99.90
59128;DHT22;44912;52.754;5.994;2023-02-28T09:18:47;4.00;99.90
59128;DHT22;44912;52.754;5.994;2023-02-28T09:21:16;4.10;99.90
59128;DHT22;44912;52.754;5.994;2023-02-28T09:23:43;4.20;99.90
59128;DHT22;44912;52.754;5.994;2023-02-28T09:26:26;4.30;99.90
59128;DHT22;44912;52.754;5.994;2023-02-28T09:28:53;4.40;99.90
59128;DHT22;44912;52.754;5.994;2023-02-28T09:31:25;4.50;99.90
59128;DHT22;44912;52.754;5.994;2023-02-28T09:33:52;4.60;99.90
59128;DHT22;44912;52.754;5.994;2023-02-28T09:36:19;4.60;99.90
59128;DHT22;44912;52.754;5.994;2023-02-28T09:38:44;4.70;99.90
59128;DHT22;44912;52.754;5.994;2023-02-28T09:41:19;4.90;99.90
59128;DHT22;44912;52.754;5.994;2023-02-28T09:43:50;5.20;99.90
59128;DHT22;44912;52.754;5.994;2023-02-28T09:46:37;5.40;99.90
59128;DHT22;44912;52.754;5.994;2023-02-28T09:49:17;5.70;99.90
59128;DHT22;44912;52.754;5.994;2023-02-28T09:51:57;6.00;99.90
59128;DHT22;44912;52.754;5.994;2023-02-28T09:54:26;6.30;99.90
59128;DHT22;44912;52.754;5.994;2023-02-28T09:57:06;6.60;99.90
59128;DHT22;44912;52.754;5.994;2023-02-28T10:00:02;6.70;99.90
59128;DHT22;44912;52.754;5.994;2023-02-28T10:03:00;6.70;99.90
59128;DHT22;44912;52.754;5.994;2023-02-28T10:05:34;6.60;99.90
59128;DHT22;44912;52.754;5.994;2023-02-28T10:08:15;6.60;99.90
59128;DHT22;44912;52.754;5.994;2023-02-28T10:10:45;6.50;99.90
59128;DHT22;44912;52.754;5.994;2023-02-28T10:15:57;6.40;99.90
59128;DHT22;44912;52.754;5.994;2023-02-28T10:18:30;6.40;99.90
59128;DHT22;44912;52.754;5.994;2023-02-28T10:21:00;6.60;99.90
59128;DHT22;44912;52.754;5.994;2023-02-28T10:23:34;6.90;99.90
59128;DHT22;44912;52.754;5.994;2023-02-28T10:26:03;7.00;99.90
59128;DHT22;44912;52.754;5.994;2023-02-28T10:28:30;7.30;99.90
59128;DHT22;44912;52.754;5.994;2023-02-28T10:30:57;7.40;99.90
59128;DHT22;44912;52.754;5.994;2023-02-28T10:33:32;7.50;99.90
59128;DHT22;44912;52.754;5.994;2023-02-28T10:36:00;7.60;99.90
59128;DHT22;44912;52.754;5.994;2023-02-28T10:38:31;7.60;99.90
59128;DHT22;44912;52.754;5.994;2023-02-28T10:43:34;7.80;99.90
59128;DHT22;44912;52.754;5.994;2023-02-28T10:48:41;8.10;99.90
59128;DHT22;44912;52.754;5.994;2023-02-28T10:51:11;8.30;99.90
59128;DHT22;44912;52.754;5.994;2023-02-28T10:56:17;8.50;99.90
59128;DHT22;44912;52.754;5.994;2023-02-28T11:01:43;8.60;99.90
59128;DHT22;44912;52.754;5.994;2023-02-28T11:04:18;8.50;99.90
59128;DHT22;44912;52.754;5.994;2023-02-28T11:06:45;8.40;99.90
59128;DHT22;44912;52.754;5.994;2023-02-28T11:09:24;8.40;99.90
59128;DHT22;44912;52.754;5.994;2023-02-28T11:11:52;8.50;99.90
59128;DHT22;44912;52.754;5.994;2023-02-28T11:14:27;8.60;99.90
59128;DHT22;44912;52.754;5.994;2023-02-28T11:16:53;8.70;99.90
59128;DHT22;44912;52.754;5.994;2023-02-28T11:19:33;8.80;99.90
59128;DHT22;44912;52.754;5.994;2023-02-28T11:22:04;8.80;99.90
59128;DHT22;44912;52.754;5.994;2023-02-28T11:24:36;8.30;99.90
59128;DHT22;44912;52.754;5.994;2023-02-28T11:27:02;8.10;99.90
59128;DHT22;44912;52.754;5.994;2023-02-28T11:29:33;8.00;99.90
59128;DHT22;44912;52.754;5.994;2023-02-28T11:32:11;8.20;99.90
59128;DHT22;44912;52.754;5.994;2023-02-28T11:34:38;8.40;99.90
59128;DHT22;44912;52.754;5.994;2023-02-28T11:37:05;8.70;99.90
59128;DHT22;44912;52.754;5.994;2023-02-28T11:39:35;8.90;99.90
59128;DHT22;44912;52.754;5.994;2023-02-28T11:51:05;9.00;99.90
59128;DHT22;44912;52.754;5.994;2023-02-28T12:02:04;9.20;99.90
59128;DHT22;44912;52.754;5.994;2023-02-28T12:07:25;8.80;99.90
59128;DHT22;44912;52.754;5.994;2023-02-28T12:13:06;8.90;99.90
59128;DHT22;44912;52.754;5.994;2023-02-28T12:18:24;9.00;99.90
59128;DHT22;44912;52.754;5.994;2023-02-28T12:29:26;8.90;99.90
59128;DHT22;44912;52.754;5.994;2023-02-28T12:32:13;8.80;99.90
59128;DHT22;44912;52.754;5.994;2023-02-28T12:34:58;8.90;99.90
59128;DHT22;44912;52.754;5.994;2023-02-28T12:37:49;9.20;99.90
59128;DHT22;44912;52.754;5.994;2023-02-28T12:40:22;9.30;99.90
59128;DHT22;44912;52.754;5.994;2023-02-28T12:42:55;9.30;99.90
59128;DHT22;44912;52.754;5.994;2023-02-28T12:45:53;9.50;99.90
59128;DHT22;44912;52.754;5.994;2023-02-28T12:48:26;9.60;99.90
59128;DHT22;44912;52.754;5.994;2023-02-28T12:50:53;9.70;99.90
59128;DHT22;44912;52.754;5.994;2023-02-28T12:53:39;9.70;99.90
59128;DHT22;44912;52.754;5.994;2023-02-28T13:04:47;9.80;99.90
59128;DHT22;44912;52.754;5.994;2023-02-28T13:07:26;9.80;99.90
59128;DHT22;44912;52.754;5.994;2023-02-28T13:09:59;9.80;99.90
59128;DHT22;44912;52.754;5.994;2023-02-28T13:12:26;9.80;99.90
59128;DHT22;44912;52.754;5.994;2023-02-28T13:15:04;9.80;99.90
59128;DHT22;44912;52.754;5.994;2023-02-28T13:17:30;9.80;99.90
59128;DHT22;44912;52.754;5.994;2023-02-28T13:19:58;9.70;99.90
59128;DHT22;44912;52.754;5.994;2023-02-28T13:22:44;9.70;99.90
59128;DHT22;44912;52.754;5.994;2023-02-28T13:27:49;9.60;99.90
59128;DHT22;44912;52.754;5.994;2023-02-28T13:33:27;9.50;99.90
59128;DHT22;44912;52.754;5.994;2023-02-28T13:44:22;9.50;99.90
59128;DHT22;44912;52.754;5.994;2023-02-28T13:57:44;9.40;99.90
59128;DHT22;44912;52.754;5.994;2023-02-28T14:00:30;9.30;99.90
59128;DHT22;44912;52.754;5.994;2023-02-28T14:03:10;9.30;99.90
59128;DHT22;44912;52.754;5.994;2023-02-28T14:05:40;9.30;99.90
59128;DHT22;44912;52.754;5.994;2023-02-28T14:08:18;9.30;99.90
59128;DHT22;44912;52.754;5.994;2023-02-28T14:10:49;9.30;99.90
59128;DHT22;44912;52.754;5.994;2023-02-28T14:13:43;9.20;99.90
59128;DHT22;44912;52.754;5.994;2023-02-28T14:16:23;9.30;99.90
59128;DHT22;44912;52.754;5.994;2023-02-28T14:19:14;9.30;99.90
59128;DHT22;44912;52.754;5.994;2023-02-28T14:29:59;9.10;99.90
59128;DHT22;44912;52.754;5.994;2023-02-28T14:32:33;9.10;99.90
59128;DHT22;44912;52.754;5.994;2023-02-28T14:37:36;9.20;99.90
59128;DHT22;44912;52.754;5.994;2023-02-28T14:40:04;9.20;99.90
59128;DHT22;44912;52.754;5.994;2023-02-28T14:42:35;9.20;99.90
59128;DHT22;44912;52.754;5.994;2023-02-28T14:45:01;9.20;99.90
59128;DHT22;44912;52.754;5.994;2023-02-28T14:47:32;9.20;99.90
59128;DHT22;44912;52.754;5.994;2023-02-28T14:49:59;9.30;99.90
59128;DHT22;44912;52.754;5.994;2023-02-28T14:52:31;9.30;99.90
59128;DHT22;44912;52.754;5.994;2023-02-28T14:55:00;9.30;99.90
59128;DHT22;44912;52.754;5.994;2023-02-28T14:57:32;9.40;99.90
59128;DHT22;44912;52.754;5.994;2023-02-28T15:02:41;9.40;99.90
59128;DHT22;44912;52.754;5.994;2023-02-28T15:07:42;9.40;99.90
59128;DHT22;44912;52.754;5.994;2023-02-28T15:10:15;9.30;99.90
59128;DHT22;44912;52.754;5.994;2023-02-28T15:12:41;9.20;99.90
59128;DHT22;44912;52.754;5.994;2023-02-28T15:15:16;9.20;99.90
59128;DHT22;44912;52.754;5.994;2023-02-28T15:17:45;9.10;99.90
59128;DHT22;44912;52.754;5.994;2023-02-28T15:20:13;9.10;99.90
59128;DHT22;44912;52.754;5.994;2023-02-28T15:22:39;9.10;99.90
59128;DHT22;44912;52.754;5.994;2023-02-28T15:25:06;9.10;99.90
59128;DHT22;44912;52.754;5.994;2023-02-28T15:27:37;9.10;99.90
59128;DHT22;44912;52.754;5.994;2023-02-28T15:30:15;9.00;99.90
59128;DHT22;44912;52.754;5.994;2023-02-28T15:32:42;8.90;99.90
59128;DHT22;44912;52.754;5.994;2023-02-28T15:37:54;8.90;99.90
59128;DHT22;44912;52.754;5.994;2023-02-28T15:45:32;8.90;99.90
59128;DHT22;44912;52.754;5.994;2023-02-28T15:48:00;8.90;99.90
59128;DHT22;44912;52.754;5.994;2023-02-28T15:50:27;9.00;99.90
59128;DHT22;44912;52.754;5.994;2023-02-28T15:52:53;9.00;99.90
59128;DHT22;44912;52.754;5.994;2023-02-28T15:55:28;9.10;99.90
59128;DHT22;44912;52.754;5.994;2023-02-28T15:57:57;9.20;99.90
59128;DHT22;44912;52.754;5.994;2023-02-28T16:00:30;9.30;99.90
59128;DHT22;44912;52.754;5.994;2023-02-28T16:02:58;9.30;99.90
59128;DHT22;44912;52.754;5.994;2023-02-28T16:05:29;9.40;99.90
59128;DHT22;44912;52.754;5.994;2023-02-28T16:07:59;9.40;99.90
59128;DHT22;44912;52.754;5.994;2023-02-28T16:10:27;9.40;99.90
59128;DHT22;44912;52.754;5.994;2023-02-28T16:12:54;9.60;99.90
59128;DHT22;44912;52.754;5.994;2023-02-28T16:15:24;9.90;99.90
59128;DHT22;44912;52.754;5.994;2023-02-28T16:17:52;10.10;99.90
59128;DHT22;44912;52.754;5.994;2023-02-28T16:20:19;10.10;99.90
59128;DHT22;44912;52.754;5.994;2023-02-28T16:22:45;10.00;99.90
59128;DHT22;44912;52.754;5.994;2023-02-28T16:25:15;9.80;99.90
59128;DHT22;44912;52.754;5.994;2023-02-28T16:27:42;9.80;99.90
59128;DHT22;44912;52.754;5.994;2023-02-28T16:30:17;9.80;99.90
59128;DHT22;44912;52.754;5.994;2023-02-28T16:32:43;9.70;99.90
59128;DHT22;44912;52.754;5.994;2023-02-28T16:35:10;9.70;99.90
59128;DHT22;44912;52.754;5.994;2023-02-28T16:37:36;9.80;99.90
59128;DHT22;44912;52.754;5.994;2023-02-28T16:40:03;9.70;99.90
59128;DHT22;44912;52.754;5.994;2023-02-28T16:42:28;9.70;99.90
59128;DHT22;44912;52.754;5.994;2023-02-28T16:44:56;9.70;99.90
59128;DHT22;44912;52.754;5.994;2023-02-28T16:47:23;9.80;99.90
59128;DHT22;44912;52.754;5.994;2023-02-28T16:49:49;9.80;99.90
59128;DHT22;44912;52.754;5.994;2023-02-28T16:52:14;9.70;99.90
59128;DHT22;44912;52.754;5.994;2023-02-28T16:54:40;9.50;99.90
59128;DHT22;44912;52.754;5.994;2023-02-28T16:57:17;9.40;99.90
59128;DHT22;44912;52.754;5.994;2023-02-28T16:59:45;9.20;99.90
59128;DHT22;44912;52.754;5.994;2023-02-28T17:02:13;9.00;99.90
59128;DHT22;44912;52.754;5.994;2023-02-28T17:04:39;8.80;99.90
59128;DHT22;44912;52.754;5.994;2023-02-28T17:07:06;8.50;99.90
59128;DHT22;44912;52.754;5.994;2023-02-28T17:09:33;8.20;99.90
59128;DHT22;44912;52.754;5.994;2023-02-28T17:11:59;7.90;99.90
59128;DHT22;44912;52.754;5.994;2023-02-28T17:14:24;7.60;99.90
59128;DHT22;44912;52.754;5.994;2023-02-28T17:16:50;7.30;99.90
59128;DHT22;44912;52.754;5.994;2023-02-28T17:19:16;7.00;99.90
59128;DHT22;44912;52.754;5.994;2023-02-28T17:21:42;6.80;99.90
59128;DHT22;44912;52.754;5.994;2023-02-28T17:24:09;6.60;99.90
59128;DHT22;44912;52.754;5.994;2023-02-28T17:26:38;6.40;99.90
59128;DHT22;44912;52.754;5.994;2023-02-28T17:29:09;6.30;99.90
59128;DHT22;44912;52.754;5.994;2023-02-28T17:31:36;6.10;99.90
59128;DHT22;44912;52.754;5.994;2023-02-28T17:34:04;5.90;99.90
59128;DHT22;44912;52.754;5.994;2023-02-28T17:36:29;5.80;99.90
59128;DHT22;44912;52.754;5.994;2023-02-28T17:38:55;5.60;99.90
59128;DHT22;44912;52.754;5.994;2023-02-28T17:41:21;5.50;99.90
59128;DHT22;44912;52.754;5.994;2023-02-28T17:43:47;5.40;99.90
59128;DHT22;44912;52.754;5.994;2023-02-28T17:46:21;5.30;99.90
59128;DHT22;44912;52.754;5.994;2023-02-28T17:48:47;5.30;99.90
59128;DHT22;44912;52.754;5.994;2023-02-28T17:51:14;5.30;99.90
59128;DHT22;44912;52.754;5.994;2023-02-28T17:53:40;5.20;99.90
59128;DHT22;44912;52.754;5.994;2023-02-28T17:56:12;5.10;99.90
59128;DHT22;44912;52.754;5.994;2023-02-28T17:58:38;5.00;99.90
59128;DHT22;44912;52.754;5.994;2023-02-28T18:01:04;4.90;99.90
59128;DHT22;44912;52.754;5.994;2023-02-28T18:03:30;4.90;99.90
59128;DHT22;44912;52.754;5.994;2023-02-28T18:05:56;4.80;99.90
59128;DHT22;44912;52.754;5.994;2023-02-28T18:08:22;4.80;99.90
59128;DHT22;44912;52.754;5.994;2023-02-28T18:10:48;4.80;99.90